createdAt,value
2018-07-30T00:01:59.717Z,25.50
2018-07-30T00:03:03.131Z,25.40
2018-07-30T00:04:06.916Z,25.40
2018-07-30T00:05:11.160Z,25.40
2018-07-30T00:06:14.564Z,25.40
2018-07-30T00:07:17.948Z,25.40
2018-07-30T00:08:21.429Z,25.40
2018-07-30T00:09:24.846Z,25.30
2018-07-30T00:10:28.355Z,25.30
2018-07-30T00:11:31.859Z,25.30
2018-07-30T00:12:36.025Z,25.30
2018-07-30T00:13:39.424Z,25.20
2018-07-30T00:14:42.896Z,25.20
2018-07-30T00:15:46.272Z,25.20
2018-07-30T00:16:49.899Z,25.20
2018-07-30T00:18:56.579Z,25.20
2018-07-30T00:20:00.251Z,25.20
2018-07-30T00:21:03.790Z,25.20
2018-07-30T00:22:07.197Z,25.20
2018-07-30T00:23:10.599Z,25.10
2018-07-30T00:24:14.076Z,25.10
2018-07-30T00:25:17.431Z,25.10
2018-07-30T00:26:20.855Z,25.10
2018-07-30T00:27:24.332Z,25.10
2018-07-30T00:28:27.801Z,25.10
2018-07-30T00:29:31.253Z,25.10
2018-07-30T00:30:34.641Z,25.00
2018-07-30T00:31:38.063Z,25.00
2018-07-30T00:32:41.486Z,25.00
2018-07-30T00:33:44.937Z,25.00
2018-07-30T00:34:48.297Z,25.00
2018-07-30T00:35:51.717Z,25.00
2018-07-30T00:36:55.069Z,25.00
2018-07-30T00:37:58.503Z,25.00
2018-07-30T00:39:01.891Z,25.00
2018-07-30T00:40:07.529Z,24.90
2018-07-30T00:41:10.901Z,24.90
2018-07-30T00:42:14.224Z,24.90
2018-07-30T00:43:17.638Z,24.90
2018-07-30T00:44:20.984Z,24.90
2018-07-30T00:45:24.281Z,24.90
2018-07-30T00:46:27.693Z,25.00
2018-07-30T00:47:31.060Z,24.90
2018-07-30T00:48:34.515Z,24.90
2018-07-30T00:49:37.886Z,24.90
2018-07-30T00:50:41.420Z,24.90
2018-07-30T00:51:44.827Z,24.90
2018-07-30T00:52:48.286Z,24.80
2018-07-30T00:53:51.686Z,24.80
2018-07-30T00:54:55.486Z,24.90
2018-07-30T00:55:58.836Z,24.90
2018-07-30T00:57:02.335Z,24.90
2018-07-30T00:58:05.760Z,24.90
2018-07-30T00:59:09.152Z,24.90
2018-07-30T01:00:12.582Z,24.90
2018-07-30T01:01:15.953Z,24.90
2018-07-30T01:02:19.333Z,24.80
2018-07-30T01:03:22.784Z,24.80
2018-07-30T01:04:26.210Z,24.70
2018-07-30T01:05:29.600Z,24.80
2018-07-30T01:06:32.930Z,24.80
2018-07-30T01:07:36.343Z,24.80
2018-07-30T01:08:39.705Z,24.80
2018-07-30T01:09:43.144Z,24.80
2018-07-30T01:10:46.937Z,24.80
2018-07-30T01:11:50.559Z,24.80
2018-07-30T01:12:53.997Z,24.80
2018-07-30T01:13:57.444Z,24.80
2018-07-30T01:15:00.841Z,24.80
2018-07-30T01:16:04.326Z,24.80
2018-07-30T01:17:07.733Z,24.80
2018-07-30T01:18:11.488Z,24.80
2018-07-30T01:19:14.848Z,24.70
2018-07-30T01:20:18.262Z,24.70
2018-07-30T01:21:21.713Z,24.70
2018-07-30T01:22:25.132Z,24.70
2018-07-30T01:23:28.672Z,24.80
2018-07-30T01:24:32.049Z,24.80
2018-07-30T01:25:35.426Z,24.80
2018-07-30T01:26:38.802Z,24.80
2018-07-30T01:27:42.183Z,24.80
2018-07-30T01:28:45.656Z,24.80
2018-07-30T01:29:49.283Z,24.90
2018-07-30T01:30:52.730Z,24.90
2018-07-30T01:31:56.096Z,24.90
2018-07-30T01:32:59.496Z,24.90
2018-07-30T01:34:02.896Z,24.90
2018-07-30T01:35:06.311Z,24.90
2018-07-30T01:36:09.725Z,24.90
2018-07-30T01:37:13.196Z,25.00
2018-07-30T01:38:16.588Z,24.90
2018-07-30T01:39:19.969Z,24.90
2018-07-30T01:40:23.353Z,24.90
2018-07-30T01:41:26.880Z,24.90
2018-07-30T01:42:30.575Z,24.90
2018-07-30T01:43:34.233Z,24.90
2018-07-30T01:44:37.597Z,24.90
2018-07-30T01:45:40.968Z,24.90
2018-07-30T01:46:44.551Z,24.90
2018-07-30T01:47:47.967Z,24.90
2018-07-30T01:48:51.305Z,24.90
2018-07-30T01:50:58.007Z,24.90
2018-07-30T01:52:01.380Z,24.90
2018-07-30T01:53:04.868Z,24.90
2018-07-30T01:54:08.305Z,24.90
2018-07-30T01:55:12.129Z,24.80
2018-07-30T01:57:19.023Z,24.80
2018-07-30T01:58:22.499Z,24.80
2018-07-30T01:59:25.877Z,24.80
2018-07-30T02:00:29.416Z,24.80
2018-07-30T02:01:32.788Z,24.80
2018-07-30T02:02:43.330Z,24.80
2018-07-30T02:03:46.868Z,24.80
2018-07-30T02:05:53.617Z,24.90
2018-07-30T02:06:57.069Z,24.90
2018-07-30T02:08:00.525Z,24.80
2018-07-30T02:09:07.312Z,24.80
2018-07-30T02:10:11.382Z,24.80
2018-07-30T02:11:15.149Z,24.80
2018-07-30T02:12:18.675Z,24.80
2018-07-30T02:13:22.268Z,24.80
2018-07-30T02:14:25.752Z,24.70
2018-07-30T02:15:29.216Z,24.70
2018-07-30T02:16:32.679Z,24.70
2018-07-30T02:17:42.748Z,24.70
2018-07-30T02:18:46.148Z,24.60
2018-07-30T02:19:49.574Z,24.60
2018-07-30T02:20:52.957Z,24.60
2018-07-30T02:21:56.471Z,24.60
2018-07-30T02:22:59.961Z,24.60
2018-07-30T02:24:03.357Z,24.60
2018-07-30T02:25:08.080Z,24.60
2018-07-30T02:26:12.005Z,24.50
2018-07-30T02:27:15.496Z,24.50
2018-07-30T02:28:18.961Z,24.50
2018-07-30T02:29:22.397Z,24.50
2018-07-30T02:30:25.776Z,24.50
2018-07-30T02:31:29.256Z,24.50
2018-07-30T02:32:32.883Z,24.50
2018-07-30T02:33:36.461Z,24.50
2018-07-30T02:34:39.985Z,24.50
2018-07-30T02:35:43.396Z,24.50
2018-07-30T02:37:50.521Z,24.50
2018-07-30T02:38:54.079Z,24.50
2018-07-30T02:39:57.902Z,24.50
2018-07-30T02:41:01.326Z,24.50
2018-07-30T02:42:04.936Z,24.50
2018-07-30T02:43:08.424Z,24.50
2018-07-30T02:44:11.890Z,24.50
2018-07-30T02:45:15.344Z,24.40
2018-07-30T02:46:18.840Z,24.40
2018-07-30T02:47:22.275Z,24.40
2018-07-30T02:48:26.482Z,24.50
2018-07-30T02:49:29.973Z,24.40
2018-07-30T02:51:36.897Z,24.40
2018-07-30T02:52:40.541Z,24.40
2018-07-30T02:53:43.999Z,24.40
2018-07-30T02:54:47.364Z,24.30
2018-07-30T02:55:50.790Z,24.30
2018-07-30T02:56:54.189Z,24.30
2018-07-30T02:57:57.668Z,24.30
2018-07-30T02:59:01.057Z,24.30
2018-07-30T03:00:05.935Z,24.30
2018-07-30T03:01:09.310Z,24.30
2018-07-30T03:02:12.836Z,24.20
2018-07-30T03:03:16.191Z,24.20
2018-07-30T03:04:19.566Z,24.20
2018-07-30T03:05:23.198Z,24.20
2018-07-30T03:06:26.685Z,24.20
2018-07-30T03:07:30.038Z,24.20
2018-07-30T03:08:33.452Z,24.20
2018-07-30T03:09:36.861Z,24.20
2018-07-30T03:10:40.281Z,24.20
2018-07-30T03:11:43.824Z,24.10
2018-07-30T03:12:47.333Z,24.10
2018-07-30T03:13:50.747Z,24.10
2018-07-30T03:14:54.220Z,24.10
2018-07-30T03:15:57.649Z,24.10
2018-07-30T03:17:01.169Z,24.10
2018-07-30T03:18:04.978Z,24.10
2018-07-30T03:19:08.429Z,24.10
2018-07-30T03:20:11.871Z,24.10
2018-07-30T03:21:15.279Z,24.00
2018-07-30T03:22:18.737Z,24.00
2018-07-30T03:23:22.489Z,24.00
2018-07-30T03:24:26.289Z,24.00
2018-07-30T03:25:29.776Z,24.00
2018-07-30T03:26:33.203Z,24.00
2018-07-30T03:27:36.816Z,23.90
2018-07-30T03:28:40.567Z,23.90
2018-07-30T03:29:43.983Z,23.90
2018-07-30T03:30:47.456Z,23.90
2018-07-30T03:31:50.936Z,23.90
2018-07-30T03:32:54.380Z,23.90
2018-07-30T03:33:58.016Z,23.90
2018-07-30T03:35:01.483Z,23.80
2018-07-30T03:36:05.429Z,23.80
2018-07-30T03:37:08.965Z,23.80
2018-07-30T03:38:12.303Z,23.80
2018-07-30T03:39:15.755Z,23.80
2018-07-30T03:40:19.233Z,23.80
2018-07-30T03:41:22.725Z,23.80
2018-07-30T03:42:26.169Z,23.80
2018-07-30T03:43:29.616Z,23.80
2018-07-30T03:44:33.248Z,23.80
2018-07-30T03:45:36.656Z,23.80
2018-07-30T03:46:39.944Z,23.80
2018-07-30T03:47:43.303Z,23.80
2018-07-30T03:48:46.850Z,23.80
2018-07-30T03:49:50.204Z,23.90
2018-07-30T03:50:53.601Z,23.90
2018-07-30T03:51:56.946Z,23.90
2018-07-30T03:53:00.417Z,23.90
2018-07-30T03:54:03.940Z,23.90
2018-07-30T03:55:07.424Z,23.90
2018-07-30T03:56:10.827Z,23.90
2018-07-30T03:57:14.321Z,23.90
2018-07-30T03:58:17.774Z,23.90
2018-07-30T03:59:21.235Z,23.90
2018-07-30T04:00:24.708Z,23.90
2018-07-30T04:01:28.111Z,23.90
2018-07-30T04:02:31.524Z,23.90
2018-07-30T04:03:34.907Z,23.90
2018-07-30T04:04:38.329Z,24.00
2018-07-30T04:05:41.670Z,24.00
2018-07-30T04:06:45.108Z,24.00
2018-07-30T04:08:52.044Z,24.00
2018-07-30T04:09:55.629Z,24.00
2018-07-30T04:10:59.154Z,24.00
2018-07-30T04:12:02.562Z,24.00
2018-07-30T04:13:06.431Z,24.10
2018-07-30T04:14:09.822Z,24.10
2018-07-30T04:15:13.168Z,24.10
2018-07-30T04:16:16.721Z,24.10
2018-07-30T04:17:20.126Z,24.10
2018-07-30T04:18:23.694Z,24.10
2018-07-30T04:19:27.513Z,24.20
2018-07-30T04:20:30.911Z,24.20
2018-07-30T04:21:34.257Z,24.20
2018-07-30T04:22:37.578Z,24.20
2018-07-30T04:23:41.006Z,24.20
2018-07-30T04:24:44.348Z,24.30
2018-07-30T04:25:47.781Z,24.30
2018-07-30T04:26:51.143Z,24.40
2018-07-30T04:27:54.584Z,24.40
2018-07-30T04:28:58.000Z,24.40
2018-07-30T04:30:02.097Z,24.50
2018-07-30T04:31:05.657Z,24.60
2018-07-30T04:32:09.147Z,24.60
2018-07-30T04:33:12.590Z,24.70
2018-07-30T04:34:16.057Z,24.70
2018-07-30T04:35:19.434Z,24.80
2018-07-30T04:36:22.950Z,24.80
2018-07-30T04:37:26.412Z,24.80
2018-07-30T04:38:29.903Z,24.80
2018-07-30T04:39:33.305Z,24.90
2018-07-30T04:40:36.772Z,24.90
2018-07-30T04:41:40.294Z,24.90
2018-07-30T04:42:43.683Z,24.90
2018-07-30T04:43:47.145Z,24.90
2018-07-30T04:44:50.532Z,24.90
2018-07-30T04:45:53.943Z,24.90
2018-07-30T04:46:57.318Z,24.90
2018-07-30T04:48:00.688Z,25.00
2018-07-30T04:49:04.276Z,25.00
2018-07-30T04:50:07.842Z,25.00
2018-07-30T04:51:11.297Z,25.00
2018-07-30T04:52:14.719Z,25.00
2018-07-30T04:53:18.139Z,25.00
2018-07-30T04:54:21.542Z,25.00
2018-07-30T04:55:24.906Z,25.00
2018-07-30T04:56:28.394Z,25.00
2018-07-30T04:57:32.006Z,25.00
2018-07-30T04:59:38.297Z,25.00
2018-07-30T05:00:41.904Z,25.00
2018-07-30T05:01:45.293Z,25.00
2018-07-30T05:02:48.713Z,25.00
2018-07-30T05:03:52.709Z,25.00
2018-07-30T05:04:56.108Z,25.00
2018-07-30T05:06:30.076Z,25.10
2018-07-30T05:07:33.443Z,25.10
2018-07-30T05:08:36.928Z,25.10
2018-07-30T05:09:40.335Z,25.10
2018-07-30T05:10:43.699Z,25.10
2018-07-30T05:11:47.069Z,25.10
2018-07-30T05:13:53.735Z,25.20
2018-07-30T05:14:57.191Z,25.20
2018-07-30T05:16:00.586Z,25.20
2018-07-30T05:17:04.364Z,25.20
2018-07-30T05:18:07.788Z,25.20
2018-07-30T05:19:11.159Z,25.20
2018-07-30T05:20:14.553Z,25.20
2018-07-30T05:21:18.097Z,25.20
2018-07-30T05:22:21.428Z,25.20
2018-07-30T05:23:24.766Z,25.30
2018-07-30T05:24:28.171Z,25.20
2018-07-30T05:25:32.167Z,25.20
2018-07-30T05:26:35.485Z,25.20
2018-07-30T05:27:38.968Z,25.20
2018-07-30T05:28:42.308Z,25.30
2018-07-30T05:29:45.740Z,25.30
2018-07-30T05:30:49.593Z,25.30
2018-07-30T05:31:53.031Z,25.20
2018-07-30T05:32:56.469Z,25.30
2018-07-30T05:33:59.872Z,25.30
2018-07-30T05:35:03.446Z,25.30
2018-07-30T05:36:07.085Z,25.30
2018-07-30T05:37:10.436Z,25.30
2018-07-30T05:38:13.840Z,25.30
2018-07-30T05:39:17.251Z,25.30
2018-07-30T05:40:20.832Z,25.40
2018-07-30T05:41:24.221Z,25.30
2018-07-30T05:42:28.153Z,25.30
2018-07-30T05:43:31.765Z,25.40
2018-07-30T05:44:35.185Z,25.40
2018-07-30T05:45:38.756Z,25.40
2018-07-30T05:46:42.125Z,25.40
2018-07-30T05:47:45.547Z,25.40
2018-07-30T05:48:48.945Z,25.40
2018-07-30T05:49:52.268Z,25.40
2018-07-30T05:50:55.841Z,25.40
2018-07-30T05:51:59.285Z,25.50
2018-07-30T05:53:02.755Z,25.50
2018-07-30T05:54:06.110Z,25.50
2018-07-30T05:55:09.542Z,25.50
2018-07-30T05:56:12.910Z,25.50
2018-07-30T05:57:16.196Z,25.50
2018-07-30T05:58:19.585Z,25.60
2018-07-30T05:59:22.994Z,25.60
2018-07-30T06:00:26.457Z,25.60
2018-07-30T06:01:29.846Z,25.60
2018-07-30T06:02:33.232Z,25.70
2018-07-30T06:04:39.900Z,25.80
2018-07-30T06:05:43.699Z,25.80
2018-07-30T06:07:50.389Z,25.90
2018-07-30T06:08:53.780Z,25.90
2018-07-30T06:09:57.145Z,25.90
2018-07-30T06:11:00.525Z,25.90
2018-07-30T06:12:03.989Z,25.90
2018-07-30T06:13:07.424Z,25.90
2018-07-30T06:14:10.786Z,25.90
2018-07-30T06:16:17.483Z,25.90
2018-07-30T06:17:20.869Z,25.90
2018-07-30T06:18:24.224Z,25.90
2018-07-30T06:19:27.600Z,26.00
2018-07-30T06:20:31.024Z,26.00
2018-07-30T06:21:34.485Z,26.00
2018-07-30T06:23:41.524Z,26.00
2018-07-30T06:24:45.045Z,26.00
2018-07-30T06:25:48.528Z,26.00
2018-07-30T06:26:51.876Z,26.00
2018-07-30T06:27:55.344Z,26.00
2018-07-30T06:28:58.717Z,26.00
2018-07-30T06:30:02.236Z,26.00
2018-07-30T06:31:05.866Z,26.00
2018-07-30T06:32:09.305Z,26.00
2018-07-30T06:33:12.710Z,26.00
2018-07-30T06:34:16.255Z,26.00
2018-07-30T06:35:19.632Z,26.00
2018-07-30T06:36:23.017Z,26.00
2018-07-30T06:38:30.009Z,26.00
2018-07-30T06:39:33.517Z,26.00
2018-07-30T06:40:36.900Z,26.00
2018-07-30T06:41:40.388Z,26.00
2018-07-30T06:42:43.803Z,26.00
2018-07-30T06:43:47.283Z,26.00
2018-07-30T06:44:50.833Z,25.90
2018-07-30T06:45:54.380Z,25.90
2018-07-30T06:46:57.919Z,25.80
2018-07-30T06:48:01.360Z,25.80
2018-07-30T06:49:05.998Z,25.90
2018-07-30T06:51:12.847Z,26.00
2018-07-30T06:52:16.354Z,26.10
2018-07-30T06:53:19.774Z,26.10
2018-07-30T06:54:23.267Z,26.20
2018-07-30T06:55:26.917Z,26.30
2018-07-30T06:57:33.614Z,26.20
2018-07-30T06:58:37.098Z,26.30
2018-07-30T06:59:40.519Z,26.30
2018-07-30T07:00:43.988Z,26.40
2018-07-30T07:01:47.699Z,26.40
2018-07-30T07:02:51.165Z,26.40
2018-07-30T07:03:54.554Z,26.50
2018-07-30T07:04:58.122Z,26.60
2018-07-30T07:06:01.488Z,26.70
2018-07-30T07:08:08.326Z,26.80
2018-07-30T07:09:11.843Z,26.90
2018-07-30T07:10:15.306Z,27.00
2018-07-30T07:11:18.805Z,27.00
2018-07-30T07:12:22.254Z,27.10
2018-07-30T07:13:25.939Z,27.10
2018-07-30T07:14:29.315Z,27.20
2018-07-30T07:15:32.773Z,27.30
2018-07-30T07:16:36.406Z,27.30
2018-07-30T07:17:40.464Z,27.30
2018-07-30T07:18:43.963Z,27.30
2018-07-30T07:19:47.350Z,27.30
2018-07-30T07:20:50.728Z,27.30
2018-07-30T07:22:57.541Z,27.30
2018-07-30T07:24:01.354Z,27.30
2018-07-30T07:25:05.395Z,27.40
2018-07-30T07:26:08.885Z,27.30
2018-07-30T07:28:15.656Z,27.20
2018-07-30T07:29:19.043Z,27.30
2018-07-30T07:30:22.519Z,27.20
2018-07-30T07:31:25.947Z,27.20
2018-07-30T07:32:29.520Z,27.10
2018-07-30T07:33:32.899Z,27.20
2018-07-30T07:35:39.671Z,27.30
2018-07-30T07:37:46.606Z,27.40
2018-07-30T07:38:50.117Z,27.50
2018-07-30T07:39:53.715Z,27.50
2018-07-30T07:42:00.609Z,27.60
2018-07-30T07:44:07.380Z,27.60
2018-07-30T07:45:10.853Z,27.60
2018-07-30T07:48:21.146Z,27.60
2018-07-30T07:49:24.518Z,27.60
2018-07-30T07:50:28.189Z,27.50
2018-07-30T07:51:31.703Z,27.50
2018-07-30T07:52:35.205Z,27.50
2018-07-30T07:53:38.644Z,27.40
2018-07-30T07:55:45.632Z,27.20
2018-07-30T07:56:49.030Z,27.10
2018-07-30T07:57:52.507Z,27.00
2018-07-30T07:59:59.307Z,26.90
2018-07-30T08:01:02.768Z,26.80
2018-07-30T08:03:09.627Z,26.80
2018-07-30T08:04:13.005Z,26.90
2018-07-30T08:05:16.565Z,26.90
2018-07-30T08:06:20.131Z,27.00
2018-07-30T08:07:23.593Z,27.10
2018-07-30T08:08:27.076Z,27.10
2018-07-30T08:09:30.438Z,27.10
2018-07-30T08:10:33.851Z,27.00
2018-07-30T08:11:37.700Z,27.10
2018-07-30T08:12:41.018Z,27.20
2018-07-30T08:13:44.505Z,27.20
2018-07-30T08:14:47.931Z,27.20
2018-07-30T08:15:51.315Z,27.20
2018-07-30T08:16:54.701Z,27.20
2018-07-30T08:17:58.036Z,27.30
2018-07-30T08:19:01.457Z,27.40
2018-07-30T08:20:07.677Z,27.40
2018-07-30T08:21:11.036Z,27.40
2018-07-30T08:22:14.385Z,27.40
2018-07-30T08:23:17.756Z,27.30
2018-07-30T08:24:21.375Z,27.30
2018-07-30T08:25:24.869Z,27.30
2018-07-30T08:26:28.535Z,27.30
2018-07-30T08:27:31.865Z,27.30
2018-07-30T08:28:35.232Z,27.30
2018-07-30T08:29:38.785Z,27.40
2018-07-30T08:31:45.667Z,27.50
2018-07-30T08:32:49.036Z,27.50
2018-07-30T08:33:52.848Z,27.50
2018-07-30T08:35:59.496Z,27.50
2018-07-30T08:37:02.885Z,27.40
2018-07-30T08:38:06.259Z,27.40
2018-07-30T08:39:12.213Z,27.30
2018-07-30T08:40:15.629Z,27.40
2018-07-30T08:41:19.060Z,27.40
2018-07-30T08:42:22.929Z,27.50
2018-07-30T08:43:26.296Z,27.50
2018-07-30T08:44:29.651Z,27.60
2018-07-30T08:45:33.155Z,27.70
2018-07-30T08:47:39.728Z,27.80
2018-07-30T08:48:43.182Z,27.80
2018-07-30T08:49:46.647Z,27.80
2018-07-30T08:50:50.189Z,27.90
2018-07-30T08:51:53.673Z,27.90
2018-07-30T08:52:57.163Z,28.00
2018-07-30T08:54:00.896Z,28.00
2018-07-30T08:55:05.160Z,28.00
2018-07-30T08:56:08.730Z,28.00
2018-07-30T08:57:12.123Z,27.90
2018-07-30T08:58:15.601Z,27.90
2018-07-30T08:59:18.982Z,27.80
2018-07-30T09:00:22.340Z,27.90
2018-07-30T09:01:25.666Z,28.00
2018-07-30T09:02:29.103Z,28.10
2018-07-30T09:03:32.503Z,28.10
2018-07-30T09:04:35.840Z,28.20
2018-07-30T09:06:42.468Z,28.40
2018-07-30T09:07:45.965Z,28.50
2018-07-30T09:08:49.328Z,28.50
2018-07-30T09:09:52.714Z,28.60
2018-07-30T09:10:56.230Z,28.60
2018-07-30T09:11:59.845Z,28.60
2018-07-30T09:14:06.828Z,28.60
2018-07-30T09:15:10.246Z,28.70
2018-07-30T09:16:13.790Z,28.70
2018-07-30T09:17:17.154Z,28.80
2018-07-30T09:18:20.705Z,28.80
2018-07-30T09:19:24.120Z,28.80
2018-07-30T09:20:27.554Z,28.80
2018-07-30T09:21:31.002Z,28.90
2018-07-30T09:22:34.369Z,28.90
2018-07-30T09:23:37.869Z,28.90
2018-07-30T09:24:41.306Z,29.00
2018-07-30T09:25:44.706Z,29.00
2018-07-30T09:26:48.114Z,29.10
2018-07-30T09:27:51.593Z,29.10
2018-07-30T09:28:54.951Z,29.10
2018-07-30T09:29:58.760Z,29.20
2018-07-30T09:31:02.345Z,29.20
2018-07-30T09:32:06.722Z,29.10
2018-07-30T09:33:11.445Z,29.10
2018-07-30T09:34:14.735Z,29.20
2018-07-30T09:35:18.467Z,29.20
2018-07-30T09:36:24.693Z,29.20
2018-07-30T09:37:28.084Z,29.20
2018-07-30T09:38:31.892Z,29.20
2018-07-30T09:39:36.024Z,29.30
2018-07-30T09:40:40.723Z,29.10
2018-07-30T09:41:45.360Z,29.10
2018-07-30T09:42:50.004Z,29.20
2018-07-30T09:43:54.502Z,29.20
2018-07-30T09:44:59.134Z,29.30
2018-07-30T09:46:03.185Z,29.40
2018-07-30T09:47:07.570Z,29.40
2018-07-30T09:48:11.583Z,29.50
2018-07-30T09:49:15.831Z,29.50
2018-07-30T09:50:20.300Z,29.50
2018-07-30T09:51:24.336Z,29.50
2018-07-30T09:52:28.723Z,29.50
2018-07-30T09:53:32.903Z,29.60
2018-07-30T09:54:37.462Z,29.60
2018-07-30T09:55:42.895Z,29.50
2018-07-30T09:56:47.152Z,29.60
2018-07-30T09:57:51.461Z,29.60
2018-07-30T09:58:56.192Z,29.50
2018-07-30T10:00:01.331Z,29.60
2018-07-30T10:01:14.234Z,29.60
2018-07-30T10:02:18.922Z,29.60
2018-07-30T10:03:23.432Z,29.70
2018-07-30T10:04:27.956Z,29.80
2018-07-30T10:05:32.444Z,29.70
2018-07-30T10:06:37.387Z,29.70
2018-07-30T10:07:40.903Z,29.80
2018-07-30T10:08:45.303Z,29.90
2018-07-30T10:09:49.243Z,30.00
2018-07-30T10:10:55.654Z,30.00
2018-07-30T10:11:59.017Z,29.90
2018-07-30T10:13:02.303Z,29.90
2018-07-30T10:14:06.203Z,29.90
2018-07-30T10:15:09.747Z,29.90
2018-07-30T10:16:13.169Z,29.90
2018-07-30T10:17:16.656Z,29.90
2018-07-30T10:18:20.189Z,30.00
2018-07-30T10:19:23.503Z,30.00
2018-07-30T10:20:26.949Z,30.10
2018-07-30T10:21:30.337Z,30.00
2018-07-30T10:22:33.811Z,29.90
2018-07-30T10:23:37.525Z,29.80
2018-07-30T10:24:40.880Z,29.70
2018-07-30T10:25:44.228Z,29.70
2018-07-30T10:27:50.949Z,29.60
2018-07-30T10:28:54.424Z,29.60
2018-07-30T10:29:57.849Z,29.70
2018-07-30T10:31:01.227Z,29.70
2018-07-30T10:32:04.699Z,29.70
2018-07-30T10:33:08.102Z,29.80
2018-07-30T10:34:11.448Z,29.90
2018-07-30T10:35:14.781Z,29.90
2018-07-30T10:36:18.176Z,29.90
2018-07-30T10:37:21.558Z,29.90
2018-07-30T10:38:24.994Z,29.90
2018-07-30T10:39:28.431Z,29.90
2018-07-30T10:40:31.809Z,29.90
2018-07-30T10:41:35.153Z,29.90
2018-07-30T10:42:38.960Z,30.00
2018-07-30T10:43:43.247Z,30.00
2018-07-30T10:44:47.893Z,30.10
2018-07-30T10:45:52.485Z,30.10
2018-07-30T10:46:57.119Z,30.20
2018-07-30T10:48:01.748Z,30.30
2018-07-30T10:49:06.311Z,30.30
2018-07-30T10:50:10.634Z,30.20
2018-07-30T10:51:17.336Z,30.20
2018-07-30T10:52:22.113Z,30.20
2018-07-30T10:53:26.891Z,30.30
2018-07-30T10:55:35.800Z,30.30
2018-07-30T10:56:40.048Z,30.20
2018-07-30T10:57:44.474Z,30.20
2018-07-30T10:58:48.975Z,30.20
2018-07-30T10:59:53.542Z,30.30
2018-07-30T11:00:58.542Z,30.20
2018-07-30T11:02:03.033Z,30.30
2018-07-30T11:03:07.279Z,30.30
2018-07-30T11:04:12.268Z,30.40
2018-07-30T11:05:16.566Z,30.40
2018-07-30T11:06:21.010Z,30.30
2018-07-30T11:07:25.744Z,30.30
2018-07-30T11:09:34.859Z,30.30
2018-07-30T11:10:39.121Z,30.20
2018-07-30T11:11:44.161Z,30.30
2018-07-30T11:12:48.581Z,30.30
2018-07-30T11:13:53.493Z,30.30
2018-07-30T11:14:58.219Z,30.40
2018-07-30T11:16:03.134Z,30.40
2018-07-30T11:17:07.892Z,30.30
2018-07-30T11:18:12.526Z,30.30
2018-07-30T11:19:16.865Z,30.30
2018-07-30T11:20:21.290Z,30.40
2018-07-30T11:21:25.831Z,30.30
2018-07-30T11:22:30.676Z,30.30
2018-07-30T11:23:35.270Z,30.30
2018-07-30T11:24:39.610Z,30.40
2018-07-30T11:25:44.566Z,30.50
2018-07-30T11:26:49.584Z,30.50
2018-07-30T11:27:54.229Z,30.50
2018-07-30T11:28:59.236Z,30.40
2018-07-30T11:30:04.568Z,30.40
2018-07-30T11:31:10.004Z,30.40
2018-07-30T11:32:13.443Z,30.30
2018-07-30T11:33:17.374Z,30.20
2018-07-30T11:34:20.882Z,30.20
2018-07-30T11:35:24.267Z,30.10
2018-07-30T11:36:27.657Z,30.20
2018-07-30T11:37:31.097Z,30.20
2018-07-30T11:38:34.611Z,30.10
2018-07-30T11:39:38.088Z,30.10
2018-07-30T11:40:41.783Z,30.20
2018-07-30T11:41:45.697Z,30.20
2018-07-30T11:42:49.223Z,30.20
2018-07-30T11:43:53.118Z,30.30
2018-07-30T11:45:59.690Z,30.40
2018-07-30T11:47:03.155Z,30.50
2018-07-30T11:48:06.723Z,30.50
2018-07-30T11:49:10.085Z,30.60
2018-07-30T11:50:13.529Z,30.70
2018-07-30T11:51:16.995Z,30.70
2018-07-30T11:52:20.339Z,30.70
2018-07-30T11:53:23.835Z,30.80
2018-07-30T11:54:27.345Z,30.80
2018-07-30T11:55:30.964Z,30.90
2018-07-30T11:56:34.374Z,30.90
2018-07-30T11:58:41.092Z,30.80
2018-07-30T11:59:44.423Z,30.90
2018-07-30T12:00:47.872Z,31.00
2018-07-30T12:01:51.501Z,31.00
2018-07-30T12:02:54.889Z,31.10
2018-07-30T12:03:58.444Z,31.10
2018-07-30T12:05:01.811Z,31.10
2018-07-30T12:06:05.245Z,31.10
2018-07-30T12:07:08.608Z,31.20
2018-07-30T12:08:12.180Z,31.20
2018-07-30T12:09:15.771Z,31.30
2018-07-30T12:10:19.298Z,31.30
2018-07-30T12:11:22.725Z,31.40
2018-07-30T12:12:26.152Z,31.40
2018-07-30T12:13:29.880Z,31.40
2018-07-30T12:14:33.292Z,31.50
2018-07-30T12:15:36.941Z,31.60
2018-07-30T12:16:40.330Z,31.60
2018-07-30T12:17:43.736Z,31.70
2018-07-30T12:18:47.248Z,31.80
2018-07-30T12:19:50.643Z,31.70
2018-07-30T12:20:54.209Z,31.70
2018-07-30T12:21:57.747Z,31.80
2018-07-30T12:23:01.201Z,31.80
2018-07-30T12:24:04.796Z,31.90
2018-07-30T12:25:08.211Z,32.00
2018-07-30T12:26:11.678Z,32.10
2018-07-30T12:27:15.126Z,32.20
2018-07-30T12:28:18.597Z,32.30
2018-07-30T12:29:22.876Z,32.30
2018-07-30T12:30:26.400Z,32.40
2018-07-30T12:31:29.916Z,32.50
2018-07-30T12:32:33.530Z,32.50
2018-07-30T12:33:37.120Z,32.50
2018-07-30T12:34:40.882Z,32.30
2018-07-30T12:35:44.777Z,32.30
2018-07-30T12:36:48.283Z,32.30
2018-07-30T12:37:51.946Z,32.30
2018-07-30T12:38:55.450Z,32.30
2018-07-30T12:39:58.942Z,32.30
2018-07-30T12:41:02.440Z,32.40
2018-07-30T12:42:05.875Z,32.40
2018-07-30T12:43:09.210Z,32.40
2018-07-30T12:44:12.719Z,32.50
2018-07-30T12:45:20.678Z,32.60
2018-07-30T12:46:24.177Z,32.70
2018-07-30T12:47:27.737Z,32.60
2018-07-30T12:48:31.117Z,32.60
2018-07-30T12:49:34.635Z,32.50
2018-07-30T12:50:38.088Z,32.50
2018-07-30T12:52:44.961Z,32.60
2018-07-30T12:54:51.591Z,32.70
2018-07-30T12:55:55.026Z,32.70
2018-07-30T12:56:58.507Z,32.60
2018-07-30T12:58:02.132Z,32.60
2018-07-30T12:59:05.677Z,32.60
2018-07-30T13:00:09.252Z,32.50
2018-07-30T13:01:12.768Z,32.50
2018-07-30T13:02:16.656Z,32.60
2018-07-30T13:03:20.313Z,32.60
2018-07-30T13:04:23.764Z,32.50
2018-07-30T13:05:27.267Z,32.50
2018-07-30T13:06:30.848Z,32.50
2018-07-30T13:07:34.563Z,32.30
2018-07-30T13:08:38.164Z,32.30
2018-07-30T13:09:41.656Z,32.20
2018-07-30T13:10:45.199Z,32.10
2018-07-30T13:11:48.809Z,32.10
2018-07-30T13:12:52.846Z,32.00
2018-07-30T13:13:56.318Z,32.00
2018-07-30T13:14:59.854Z,32.00
2018-07-30T13:16:03.471Z,32.10
2018-07-30T13:17:07.156Z,32.00
2018-07-30T13:18:10.666Z,32.10
2018-07-30T13:19:14.322Z,32.10
2018-07-30T13:20:17.762Z,32.20
2018-07-30T13:21:21.589Z,32.30
2018-07-30T13:22:25.255Z,32.40
2018-07-30T13:23:28.744Z,32.50
2018-07-30T13:24:32.307Z,32.50
2018-07-30T13:25:36.133Z,32.50
2018-07-30T13:26:39.843Z,32.60
2018-07-30T13:27:43.431Z,32.60
2018-07-30T13:28:47.179Z,32.60
2018-07-30T13:29:50.668Z,32.50
2018-07-30T13:30:54.408Z,32.50
2018-07-30T13:31:57.853Z,32.40
2018-07-30T13:33:01.453Z,32.40
2018-07-30T13:34:05.007Z,32.40
2018-07-30T13:35:08.757Z,32.40
2018-07-30T13:36:12.294Z,32.40
2018-07-30T13:37:15.905Z,32.40
2018-07-30T13:38:19.531Z,32.30
2018-07-30T13:39:23.015Z,32.30
2018-07-30T13:40:26.417Z,32.30
2018-07-30T13:41:29.914Z,32.30
2018-07-30T13:42:33.782Z,32.30
2018-07-30T13:43:37.439Z,32.30
2018-07-30T13:44:40.980Z,32.30
2018-07-30T13:45:47.627Z,32.20
2018-07-30T13:46:51.011Z,32.20
2018-07-30T13:47:54.644Z,32.10
2018-07-30T13:48:58.096Z,32.00
2018-07-30T13:50:01.763Z,31.90
2018-07-30T13:51:05.493Z,31.90
2018-07-30T13:52:08.944Z,31.80
2018-07-30T13:53:12.443Z,31.70
2018-07-30T13:54:15.984Z,31.70
2018-07-30T13:55:19.457Z,31.60
2018-07-30T13:56:22.855Z,31.70
2018-07-30T13:57:26.309Z,31.70
2018-07-30T13:58:29.800Z,31.70
2018-07-30T13:59:33.315Z,31.70
2018-07-30T14:01:40.214Z,31.80
2018-07-30T14:02:43.646Z,31.90
2018-07-30T14:03:47.152Z,31.90
2018-07-30T14:04:50.558Z,31.90
2018-07-30T14:05:53.997Z,31.90
2018-07-30T14:06:57.537Z,31.90
2018-07-30T14:09:08.203Z,31.90
2018-07-30T14:10:11.712Z,31.90
2018-07-30T14:11:15.131Z,31.90
2018-07-30T14:12:18.615Z,31.80
2018-07-30T14:13:22.150Z,31.80
2018-07-30T14:14:25.592Z,31.80
2018-07-30T14:15:29.119Z,31.80
2018-07-30T14:16:32.774Z,31.80
2018-07-30T14:17:36.508Z,31.80
2018-07-30T14:18:40.186Z,31.80
2018-07-30T14:19:43.874Z,31.80
2018-07-30T14:21:50.869Z,31.70
2018-07-30T14:22:54.477Z,31.70
2018-07-30T14:23:58.144Z,31.80
2018-07-30T14:25:01.730Z,31.80
2018-07-30T14:26:05.219Z,31.90
2018-07-30T14:27:08.758Z,32.00